sensor_id;sensor_type;location;lat;lon;timestamp;P1;durP1;ratioP1;P2;durP2;ratioP2
55210;SDS011;41082;52.822;6.666;2023-03-26T00:01:12;8.23;;;0.93;;
55210;SDS011;41082;52.822;6.666;2023-03-26T00:03:39;11.73;;;0.95;;
55210;SDS011;41082;52.822;6.666;2023-03-26T00:08:36;7.93;;;0.70;;
55210;SDS011;41082;52.822;6.666;2023-03-26T00:11:05;9.13;;;1.50;;
55210;SDS011;41082;52.822;6.666;2023-03-26T00:13:32;6.82;;;1.00;;
55210;SDS011;41082;52.822;6.666;2023-03-26T00:15:58;7.18;;;1.70;;
55210;SDS011;41082;52.822;6.666;2023-03-26T00:18:24;12.70;;;1.38;;
55210;SDS011;41082;52.822;6.666;2023-03-26T00:20:57;9.70;;;1.63;;
55210;SDS011;41082;52.822;6.666;2023-03-26T00:23:24;11.02;;;1.05;;
55210;SDS011;41082;52.822;6.666;2023-03-26T00:25:51;12.02;;;1.08;;
55210;SDS011;41082;52.822;6.666;2023-03-26T00:28:17;11.68;;;0.93;;
55210;SDS011;41082;52.822;6.666;2023-03-26T00:30:46;10.77;;;1.33;;
55210;SDS011;41082;52.822;6.666;2023-03-26T00:33:12;16.38;;;1.45;;
55210;SDS011;41082;52.822;6.666;2023-03-26T00:35:41;9.25;;;1.48;;
55210;SDS011;41082;52.822;6.666;2023-03-26T00:38:11;12.02;;;1.38;;
55210;SDS011;41082;52.822;6.666;2023-03-26T00:40:38;10.40;;;1.08;;
55210;SDS011;41082;52.822;6.666;2023-03-26T00:43:09;8.68;;;0.98;;
55210;SDS011;41082;52.822;6.666;2023-03-26T00:45:43;11.32;;;1.02;;
55210;SDS011;41082;52.822;6.666;2023-03-26T00:48:10;11.02;;;1.20;;
55210;SDS011;41082;52.822;6.666;2023-03-26T00:50:36;8.10;;;1.00;;
55210;SDS011;41082;52.822;6.666;2023-03-26T00:53:02;8.45;;;0.90;;
55210;SDS011;41082;52.822;6.666;2023-03-26T00:55:28;8.32;;;1.17;;
55210;SDS011;41082;52.822;6.666;2023-03-26T00:57:53;16.08;;;1.13;;
55210;SDS011;41082;52.822;6.666;2023-03-26T01:00:19;8.60;;;1.45;;
55210;SDS011;41082;52.822;6.666;2023-03-26T01:02:58;11.60;;;1.13;;
55210;SDS011;41082;52.822;6.666;2023-03-26T01:07:58;11.38;;;1.75;;
55210;SDS011;41082;52.822;6.666;2023-03-26T01:10:28;8.05;;;1.15;;
55210;SDS011;41082;52.822;6.666;2023-03-26T01:13:02;8.13;;;0.90;;
55210;SDS011;41082;52.822;6.666;2023-03-26T01:15:28;7.30;;;1.48;;
55210;SDS011;41082;52.822;6.666;2023-03-26T01:17:54;13.23;;;1.35;;
55210;SDS011;41082;52.822;6.666;2023-03-26T01:20:22;8.63;;;1.02;;
55210;SDS011;41082;52.822;6.666;2023-03-26T01:22:55;10.25;;;1.98;;
55210;SDS011;41082;52.822;6.666;2023-03-26T01:25:24;12.93;;;1.25;;
55210;SDS011;41082;52.822;6.666;2023-03-26T01:27:57;7.53;;;1.38;;
55210;SDS011;41082;52.822;6.666;2023-03-26T01:35:59;13.95;;;1.67;;
55210;SDS011;41082;52.822;6.666;2023-03-26T01:38:57;12.15;;;1.20;;
55210;SDS011;41082;52.822;6.666;2023-03-26T01:44:30;12.75;;;0.98;;
55210;SDS011;41082;52.822;6.666;2023-03-26T01:46:58;9.43;;;0.90;;
55210;SDS011;41082;52.822;6.666;2023-03-26T01:49:26;10.82;;;1.27;;
55210;SDS011;41082;52.822;6.666;2023-03-26T01:51:53;8.48;;;1.00;;
55210;SDS011;41082;52.822;6.666;2023-03-26T01:54:21;10.13;;;1.20;;
55210;SDS011;41082;52.822;6.666;2023-03-26T02:02:59;12.02;;;1.25;;
55210;SDS011;41082;52.822;6.666;2023-03-26T02:05:49;9.05;;;1.00;;
55210;SDS011;41082;52.822;6.666;2023-03-26T02:10:54;6.82;;;1.00;;
55210;SDS011;41082;52.822;6.666;2023-03-26T02:13:22;10.60;;;1.02;;
55210;SDS011;41082;52.822;6.666;2023-03-26T02:15:59;11.20;;;1.27;;
55210;SDS011;41082;52.822;6.666;2023-03-26T02:18:26;7.70;;;1.45;;
55210;SDS011;41082;52.822;6.666;2023-03-26T02:21:06;10.30;;;1.55;;
55210;SDS011;41082;52.822;6.666;2023-03-26T02:23:35;10.82;;;1.40;;
55210;SDS011;41082;52.822;6.666;2023-03-26T02:26:04;11.82;;;1.50;;
55210;SDS011;41082;52.822;6.666;2023-03-26T02:28:32;8.30;;;1.17;;
55210;SDS011;41082;52.822;6.666;2023-03-26T02:30:57;10.43;;;0.98;;
55210;SDS011;41082;52.822;6.666;2023-03-26T02:33:26;9.77;;;1.10;;
55210;SDS011;41082;52.822;6.666;2023-03-26T02:35:55;10.68;;;1.00;;
55210;SDS011;41082;52.822;6.666;2023-03-26T02:38:25;9.02;;;1.30;;
55210;SDS011;41082;52.822;6.666;2023-03-26T02:40:57;8.60;;;1.27;;
55210;SDS011;41082;52.822;6.666;2023-03-26T02:43:23;9.73;;;1.27;;
55210;SDS011;41082;52.822;6.666;2023-03-26T02:45:49;9.50;;;1.00;;
55210;SDS011;41082;52.822;6.666;2023-03-26T02:48:15;10.60;;;1.23;;
55210;SDS011;41082;52.822;6.666;2023-03-26T02:50:41;7.68;;;1.08;;
55210;SDS011;41082;52.822;6.666;2023-03-26T02:53:07;6.32;;;0.82;;
55210;SDS011;41082;52.822;6.666;2023-03-26T02:55:32;8.52;;;1.40;;
55210;SDS011;41082;52.822;6.666;2023-03-26T02:57:58;8.88;;;1.05;;
55210;SDS011;41082;52.822;6.666;2023-03-26T03:00:23;8.07;;;1.20;;
55210;SDS011;41082;52.822;6.666;2023-03-26T03:02:49;8.65;;;1.27;;
55210;SDS011;41082;52.822;6.666;2023-03-26T03:05:16;8.68;;;1.40;;
55210;SDS011;41082;52.822;6.666;2023-03-26T03:07:43;5.10;;;1.05;;
55210;SDS011;41082;52.822;6.666;2023-03-26T03:10:11;9.63;;;1.35;;
55210;SDS011;41082;52.822;6.666;2023-03-26T03:12:38;6.47;;;0.98;;
55210;SDS011;41082;52.822;6.666;2023-03-26T03:15:05;9.68;;;0.90;;
55210;SDS011;41082;52.822;6.666;2023-03-26T03:17:31;6.75;;;1.10;;
55210;SDS011;41082;52.822;6.666;2023-03-26T03:19:57;8.25;;;1.15;;
55210;SDS011;41082;52.822;6.666;2023-03-26T03:22:23;4.60;;;0.77;;
55210;SDS011;41082;52.822;6.666;2023-03-26T03:24:48;4.38;;;1.08;;
55210;SDS011;41082;52.822;6.666;2023-03-26T03:27:16;8.15;;;0.80;;
55210;SDS011;41082;52.822;6.666;2023-03-26T03:29:44;5.65;;;0.98;;
55210;SDS011;41082;52.822;6.666;2023-03-26T03:32:10;6.07;;;1.15;;
55210;SDS011;41082;52.822;6.666;2023-03-26T03:34:36;5.95;;;0.98;;
55210;SDS011;41082;52.822;6.666;2023-03-26T03:37:03;4.25;;;0.60;;
55210;SDS011;41082;52.822;6.666;2023-03-26T03:39:29;7.88;;;0.80;;
55210;SDS011;41082;52.822;6.666;2023-03-26T03:41:54;6.47;;;1.25;;
55210;SDS011;41082;52.822;6.666;2023-03-26T03:44:20;6.55;;;1.02;;
55210;SDS011;41082;52.822;6.666;2023-03-26T03:46:45;9.15;;;1.15;;
55210;SDS011;41082;52.822;6.666;2023-03-26T03:49:13;6.07;;;0.85;;
55210;SDS011;41082;52.822;6.666;2023-03-26T03:51:38;6.15;;;0.68;;
55210;SDS011;41082;52.822;6.666;2023-03-26T03:54:05;6.63;;;0.90;;
55210;SDS011;41082;52.822;6.666;2023-03-26T03:56:32;4.50;;;0.90;;
55210;SDS011;41082;52.822;6.666;2023-03-26T03:58:57;7.00;;;0.90;;
55210;SDS011;41082;52.822;6.666;2023-03-26T04:01:23;7.63;;;0.90;;
55210;SDS011;41082;52.822;6.666;2023-03-26T04:03:49;4.90;;;0.52;;
55210;SDS011;41082;52.822;6.666;2023-03-26T04:06:15;4.82;;;0.80;;
55210;SDS011;41082;52.822;6.666;2023-03-26T04:08:43;5.00;;;0.60;;
55210;SDS011;41082;52.822;6.666;2023-03-26T04:11:09;5.65;;;0.82;;
55210;SDS011;41082;52.822;6.666;2023-03-26T04:13:36;3.65;;;0.45;;
55210;SDS011;41082;52.822;6.666;2023-03-26T04:16:01;3.38;;;0.50;;
55210;SDS011;41082;52.822;6.666;2023-03-26T04:18:27;7.95;;;0.70;;
55210;SDS011;41082;52.822;6.666;2023-03-26T04:20:54;4.90;;;0.80;;
55210;SDS011;41082;52.822;6.666;2023-03-26T04:23:20;4.43;;;0.63;;
55210;SDS011;41082;52.822;6.666;2023-03-26T04:25:47;6.35;;;1.05;;
55210;SDS011;41082;52.822;6.666;2023-03-26T04:30:50;8.23;;;1.17;;
55210;SDS011;41082;52.822;6.666;2023-03-26T04:33:18;4.47;;;0.80;;
55210;SDS011;41082;52.822;6.666;2023-03-26T04:35:45;8.20;;;1.30;;
55210;SDS011;41082;52.822;6.666;2023-03-26T04:38:12;6.72;;;1.58;;
55210;SDS011;41082;52.822;6.666;2023-03-26T04:40:41;9.90;;;1.42;;
55210;SDS011;41082;52.822;6.666;2023-03-26T04:43:11;6.22;;;1.38;;
55210;SDS011;41082;52.822;6.666;2023-03-26T04:45:40;6.38;;;1.20;;
55210;SDS011;41082;52.822;6.666;2023-03-26T04:48:07;6.53;;;1.10;;
55210;SDS011;41082;52.822;6.666;2023-03-26T04:50:32;5.60;;;0.93;;
55210;SDS011;41082;52.822;6.666;2023-03-26T04:52:58;7.60;;;0.88;;
55210;SDS011;41082;52.822;6.666;2023-03-26T04:57:58;6.47;;;0.75;;
55210;SDS011;41082;52.822;6.666;2023-03-26T05:00:27;7.13;;;0.93;;
55210;SDS011;41082;52.822;6.666;2023-03-26T05:02:53;6.88;;;1.02;;
55210;SDS011;41082;52.822;6.666;2023-03-26T05:05:21;7.35;;;1.10;;
55210;SDS011;41082;52.822;6.666;2023-03-26T05:07:48;5.57;;;1.00;;
55210;SDS011;41082;52.822;6.666;2023-03-26T05:10:14;6.70;;;1.20;;
55210;SDS011;41082;52.822;6.666;2023-03-26T05:12:40;5.60;;;1.50;;
55210;SDS011;41082;52.822;6.666;2023-03-26T05:15:06;6.30;;;1.20;;
55210;SDS011;41082;52.822;6.666;2023-03-26T05:17:33;6.40;;;1.10;;
55210;SDS011;41082;52.822;6.666;2023-03-26T05:19:59;6.35;;;1.13;;
55210;SDS011;41082;52.822;6.666;2023-03-26T05:22:25;5.40;;;1.35;;
55210;SDS011;41082;52.822;6.666;2023-03-26T05:24:51;7.28;;;1.45;;
55210;SDS011;41082;52.822;6.666;2023-03-26T05:27:17;6.05;;;1.23;;
55210;SDS011;41082;52.822;6.666;2023-03-26T05:29:44;4.55;;;1.20;;
55210;SDS011;41082;52.822;6.666;2023-03-26T05:32:10;9.90;;;1.40;;
55210;SDS011;41082;52.822;6.666;2023-03-26T05:34:37;7.10;;;1.70;;
55210;SDS011;41082;52.822;6.666;2023-03-26T05:37:05;8.93;;;1.60;;
55210;SDS011;41082;52.822;6.666;2023-03-26T05:39:33;5.28;;;1.30;;
55210;SDS011;41082;52.822;6.666;2023-03-26T05:41:59;6.75;;;1.20;;
55210;SDS011;41082;52.822;6.666;2023-03-26T05:44:25;6.85;;;2.40;;
55210;SDS011;41082;52.822;6.666;2023-03-26T05:46:51;13.90;;;4.30;;
55210;SDS011;41082;52.822;6.666;2023-03-26T05:49:16;13.90;;;5.30;;
55210;SDS011;41082;52.822;6.666;2023-03-26T05:51:42;9.20;;;4.95;;
55210;SDS011;41082;52.822;6.666;2023-03-26T05:54:07;14.43;;;5.78;;
55210;SDS011;41082;52.822;6.666;2023-03-26T05:56:33;8.63;;;3.10;;
55210;SDS011;41082;52.822;6.666;2023-03-26T05:58:59;7.07;;;2.80;;
55210;SDS011;41082;52.822;6.666;2023-03-26T06:01:24;8.07;;;2.92;;
55210;SDS011;41082;52.822;6.666;2023-03-26T06:03:50;5.50;;;1.95;;
55210;SDS011;41082;52.822;6.666;2023-03-26T06:06:17;6.30;;;1.42;;
55210;SDS011;41082;52.822;6.666;2023-03-26T06:08:45;8.52;;;1.52;;
55210;SDS011;41082;52.822;6.666;2023-03-26T06:11:13;9.18;;;1.48;;
55210;SDS011;41082;52.822;6.666;2023-03-26T06:13:40;5.75;;;1.23;;
55210;SDS011;41082;52.822;6.666;2023-03-26T06:16:06;8.07;;;1.75;;
55210;SDS011;41082;52.822;6.666;2023-03-26T06:18:32;5.85;;;1.88;;
55210;SDS011;41082;52.822;6.666;2023-03-26T06:20:58;7.70;;;1.55;;
55210;SDS011;41082;52.822;6.666;2023-03-26T06:23:24;5.60;;;1.58;;
55210;SDS011;41082;52.822;6.666;2023-03-26T06:25:50;8.98;;;1.83;;
55210;SDS011;41082;52.822;6.666;2023-03-26T06:28:16;8.43;;;1.85;;
55210;SDS011;41082;52.822;6.666;2023-03-26T06:30:42;5.03;;;1.30;;
55210;SDS011;41082;52.822;6.666;2023-03-26T06:33:07;6.22;;;1.30;;
55210;SDS011;41082;52.822;6.666;2023-03-26T06:35:33;9.98;;;2.22;;
55210;SDS011;41082;52.822;6.666;2023-03-26T06:37:58;6.43;;;1.90;;
55210;SDS011;41082;52.822;6.666;2023-03-26T06:40:24;8.23;;;1.50;;
55210;SDS011;41082;52.822;6.666;2023-03-26T06:42:50;8.48;;;1.50;;
55210;SDS011;41082;52.822;6.666;2023-03-26T06:45:16;5.35;;;1.60;;
55210;SDS011;41082;52.822;6.666;2023-03-26T06:47:42;14.32;;;3.10;;
55210;SDS011;41082;52.822;6.666;2023-03-26T06:50:08;6.55;;;2.30;;
55210;SDS011;41082;52.822;6.666;2023-03-26T06:52:35;7.55;;;2.22;;
55210;SDS011;41082;52.822;6.666;2023-03-26T06:55:01;11.50;;;2.15;;
55210;SDS011;41082;52.822;6.666;2023-03-26T06:57:27;9.63;;;2.85;;
55210;SDS011;41082;52.822;6.666;2023-03-26T06:59:52;7.78;;;3.08;;
55210;SDS011;41082;52.822;6.666;2023-03-26T07:02:18;10.77;;;2.92;;
55210;SDS011;41082;52.822;6.666;2023-03-26T07:04:44;12.02;;;3.00;;
55210;SDS011;41082;52.822;6.666;2023-03-26T07:07:09;15.88;;;2.58;;
55210;SDS011;41082;52.822;6.666;2023-03-26T07:09:35;11.27;;;2.03;;
55210;SDS011;41082;52.822;6.666;2023-03-26T07:12:01;18.50;;;2.35;;
55210;SDS011;41082;52.822;6.666;2023-03-26T07:14:26;14.93;;;1.70;;
55210;SDS011;41082;52.822;6.666;2023-03-26T07:16:54;9.85;;;1.42;;
55210;SDS011;41082;52.822;6.666;2023-03-26T07:19:21;17.65;;;1.80;;
55210;SDS011;41082;52.822;6.666;2023-03-26T07:21:47;11.23;;;2.28;;
55210;SDS011;41082;52.822;6.666;2023-03-26T07:24:13;12.63;;;3.60;;
55210;SDS011;41082;52.822;6.666;2023-03-26T07:37:42;15.93;;;1.90;;
55210;SDS011;41082;52.822;6.666;2023-03-26T07:43:11;21.73;;;2.20;;
55210;SDS011;41082;52.822;6.666;2023-03-26T07:45:45;13.65;;;1.70;;
55210;SDS011;41082;52.822;6.666;2023-03-26T07:50:49;11.23;;;1.23;;
55210;SDS011;41082;52.822;6.666;2023-03-26T07:53:15;18.08;;;2.20;;
55210;SDS011;41082;52.822;6.666;2023-03-26T08:01:20;17.23;;;1.88;;
55210;SDS011;41082;52.822;6.666;2023-03-26T08:10:26;13.38;;;1.70;;
55210;SDS011;41082;52.822;6.666;2023-03-26T08:16:02;15.48;;;1.67;;
55210;SDS011;41082;52.822;6.666;2023-03-26T08:21:27;14.85;;;1.35;;
55210;SDS011;41082;52.822;6.666;2023-03-26T08:26:47;14.70;;;1.33;;
55210;SDS011;41082;52.822;6.666;2023-03-26T08:29:24;18.00;;;2.45;;
55210;SDS011;41082;52.822;6.666;2023-03-26T08:31:58;18.42;;;2.05;;
55210;SDS011;41082;52.822;6.666;2023-03-26T08:34:25;13.60;;;1.52;;
55210;SDS011;41082;52.822;6.666;2023-03-26T08:36:51;16.33;;;1.75;;
55210;SDS011;41082;52.822;6.666;2023-03-26T08:39:16;18.95;;;1.55;;
55210;SDS011;41082;52.822;6.666;2023-03-26T08:42:17;14.05;;;1.75;;
55210;SDS011;41082;52.822;6.666;2023-03-26T09:07:09;16.40;;;1.23;;
55210;SDS011;41082;52.822;6.666;2023-03-26T09:12:57;19.92;;;2.63;;
55210;SDS011;41082;52.822;6.666;2023-03-26T09:15:53;16.25;;;1.40;;
55210;SDS011;41082;52.822;6.666;2023-03-26T09:33:53;13.57;;;1.65;;
55210;SDS011;41082;52.822;6.666;2023-03-26T09:55:23;13.18;;;2.55;;
55210;SDS011;41082;52.822;6.666;2023-03-26T10:03:43;14.15;;;1.55;;
55210;SDS011;41082;52.822;6.666;2023-03-26T10:14:00;7.55;;;1.33;;
55210;SDS011;41082;52.822;6.666;2023-03-26T10:19:24;12.60;;;1.52;;
55210;SDS011;41082;52.822;6.666;2023-03-26T10:27:41;10.90;;;1.38;;
55210;SDS011;41082;52.822;6.666;2023-03-26T10:30:17;8.60;;;1.30;;
55210;SDS011;41082;52.822;6.666;2023-03-26T10:32:56;12.90;;;1.33;;
55210;SDS011;41082;52.822;6.666;2023-03-26T10:41:03;13.18;;;1.50;;
55210;SDS011;41082;52.822;6.666;2023-03-26T10:43:55;13.35;;;2.25;;
55210;SDS011;41082;52.822;6.666;2023-03-26T10:46:38;10.45;;;1.08;;
55210;SDS011;41082;52.822;6.666;2023-03-26T10:52:24;8.93;;;1.35;;
55210;SDS011;41082;52.822;6.666;2023-03-26T10:57:34;12.60;;;1.08;;
55210;SDS011;41082;52.822;6.666;2023-03-26T11:02:42;10.40;;;1.02;;
55210;SDS011;41082;52.822;6.666;2023-03-26T11:05:26;10.68;;;1.10;;
55210;SDS011;41082;52.822;6.666;2023-03-26T11:07:58;12.77;;;1.02;;
55210;SDS011;41082;52.822;6.666;2023-03-26T11:15:37;14.90;;;1.40;;
55210;SDS011;41082;52.822;6.666;2023-03-26T11:20:40;7.63;;;1.10;;
55210;SDS011;41082;52.822;6.666;2023-03-26T11:31:03;15.32;;;1.88;;
55210;SDS011;41082;52.822;6.666;2023-03-26T11:33:50;10.30;;;1.00;;
55210;SDS011;41082;52.822;6.666;2023-03-26T11:36:22;11.00;;;1.95;;
55210;SDS011;41082;52.822;6.666;2023-03-26T11:38:54;10.88;;;1.17;;
55210;SDS011;41082;52.822;6.666;2023-03-26T11:41:24;8.80;;;1.17;;
55210;SDS011;41082;52.822;6.666;2023-03-26T11:44:35;12.07;;;1.00;;
55210;SDS011;41082;52.822;6.666;2023-03-26T11:46:55;14.70;;;1.40;;
55210;SDS011;41082;52.822;6.666;2023-03-26T11:49:25;13.43;;;1.55;;
55210;SDS011;41082;52.822;6.666;2023-03-26T11:51:53;7.45;;;1.27;;
55210;SDS011;41082;52.822;6.666;2023-03-26T11:54:19;11.30;;;1.00;;
55210;SDS011;41082;52.822;6.666;2023-03-26T11:56:46;11.25;;;1.45;;
55210;SDS011;41082;52.822;6.666;2023-03-26T11:59:34;8.68;;;1.00;;
55210;SDS011;41082;52.822;6.666;2023-03-26T12:04:36;11.88;;;1.35;;
55210;SDS011;41082;52.822;6.666;2023-03-26T12:12:18;10.43;;;1.70;;
55210;SDS011;41082;52.822;6.666;2023-03-26T12:14:45;7.10;;;0.98;;
55210;SDS011;41082;52.822;6.666;2023-03-26T12:17:13;13.48;;;1.05;;
55210;SDS011;41082;52.822;6.666;2023-03-26T12:19:49;15.57;;;1.55;;
55210;SDS011;41082;52.822;6.666;2023-03-26T12:27:47;8.32;;;1.20;;
55210;SDS011;41082;52.822;6.666;2023-03-26T12:30:24;10.73;;;1.05;;
55210;SDS011;41082;52.822;6.666;2023-03-26T12:32:56;10.50;;;1.30;;
55210;SDS011;41082;52.822;6.666;2023-03-26T12:35:25;10.85;;;1.60;;
55210;SDS011;41082;52.822;6.666;2023-03-26T12:37:54;14.43;;;1.40;;
55210;SDS011;41082;52.822;6.666;2023-03-26T12:40:37;15.60;;;1.23;;
55210;SDS011;41082;52.822;6.666;2023-03-26T12:43:05;11.65;;;0.80;;
55210;SDS011;41082;52.822;6.666;2023-03-26T12:45:54;11.48;;;1.05;;
55210;SDS011;41082;52.822;6.666;2023-03-26T12:48:22;9.10;;;0.90;;
55210;SDS011;41082;52.822;6.666;2023-03-26T13:07:29;10.68;;;1.20;;
55210;SDS011;41082;52.822;6.666;2023-03-26T13:13:02;10.25;;;1.73;;
55210;SDS011;41082;52.822;6.666;2023-03-26T13:15:43;12.68;;;1.25;;
55210;SDS011;41082;52.822;6.666;2023-03-26T13:18:41;12.10;;;1.10;;
55210;SDS011;41082;52.822;6.666;2023-03-26T13:21:35;14.88;;;0.90;;
55210;SDS011;41082;52.822;6.666;2023-03-26T13:32:17;9.45;;;0.70;;
55210;SDS011;41082;52.822;6.666;2023-03-26T13:35:03;7.65;;;0.68;;
55210;SDS011;41082;52.822;6.666;2023-03-26T13:37:54;12.63;;;1.20;;
55210;SDS011;41082;52.822;6.666;2023-03-26T13:40:33;10.75;;;0.90;;
55210;SDS011;41082;52.822;6.666;2023-03-26T13:46:11;8.68;;;0.77;;
55210;SDS011;41082;52.822;6.666;2023-03-26T13:51:24;9.30;;;0.80;;
55210;SDS011;41082;52.822;6.666;2023-03-26T13:56:40;12.38;;;0.90;;
55210;SDS011;41082;52.822;6.666;2023-03-26T13:59:29;6.97;;;0.55;;
55210;SDS011;41082;52.822;6.666;2023-03-26T14:02:00;10.93;;;0.93;;
55210;SDS011;41082;52.822;6.666;2023-03-26T14:04:32;10.98;;;0.82;;
55210;SDS011;41082;52.822;6.666;2023-03-26T14:07:11;20.80;;;1.17;;
55210;SDS011;41082;52.822;6.666;2023-03-26T14:09:50;10.35;;;1.17;;
55210;SDS011;41082;52.822;6.666;2023-03-26T14:15:13;9.25;;;1.00;;
55210;SDS011;41082;52.822;6.666;2023-03-26T14:18:00;11.52;;;1.05;;
55210;SDS011;41082;52.822;6.666;2023-03-26T14:23:24;11.75;;;1.00;;
55210;SDS011;41082;52.822;6.666;2023-03-26T14:26:25;13.18;;;2.03;;
55210;SDS011;41082;52.822;6.666;2023-03-26T14:31:42;9.90;;;0.88;;
55210;SDS011;41082;52.822;6.666;2023-03-26T14:34:44;9.65;;;0.50;;
55210;SDS011;41082;52.822;6.666;2023-03-26T14:43:10;9.27;;;1.10;;
55210;SDS011;41082;52.822;6.666;2023-03-26T14:46:06;7.13;;;0.70;;
55210;SDS011;41082;52.822;6.666;2023-03-26T14:54:04;5.93;;;0.70;;
55210;SDS011;41082;52.822;6.666;2023-03-26T14:59:45;6.55;;;0.50;;
55210;SDS011;41082;52.822;6.666;2023-03-26T15:39:50;5.95;;;0.60;;
55210;SDS011;41082;52.822;6.666;2023-03-26T15:48:04;12.52;;;1.15;;
55210;SDS011;41082;52.822;6.666;2023-03-26T15:53:14;7.90;;;0.70;;
55210;SDS011;41082;52.822;6.666;2023-03-26T15:58:41;9.52;;;0.68;;
55210;SDS011;41082;52.822;6.666;2023-03-26T16:10:20;8.43;;;0.68;;
55210;SDS011;41082;52.822;6.666;2023-03-26T16:15:42;9.57;;;0.90;;
55210;SDS011;41082;52.822;6.666;2023-03-26T16:18:17;10.63;;;0.82;;
55210;SDS011;41082;52.822;6.666;2023-03-26T16:20:50;9.30;;;0.45;;
55210;SDS011;41082;52.822;6.666;2023-03-26T16:33:46;7.18;;;0.73;;
55210;SDS011;41082;52.822;6.666;2023-03-26T16:36:32;11.35;;;0.75;;
55210;SDS011;41082;52.822;6.666;2023-03-26T16:46:36;7.75;;;0.80;;
55210;SDS011;41082;52.822;6.666;2023-03-26T16:49:09;10.90;;;0.70;;
55210;SDS011;41082;52.822;6.666;2023-03-26T16:54:56;9.55;;;0.80;;
55210;SDS011;41082;52.822;6.666;2023-03-26T17:00:30;6.80;;;0.68;;
55210;SDS011;41082;52.822;6.666;2023-03-26T17:08:39;13.68;;;1.17;;
55210;SDS011;41082;52.822;6.666;2023-03-26T17:19:34;13.95;;;0.75;;
55210;SDS011;41082;52.822;6.666;2023-03-26T17:22:23;5.97;;;0.85;;
55210;SDS011;41082;52.822;6.666;2023-03-26T17:25:21;10.07;;;0.65;;
55210;SDS011;41082;52.822;6.666;2023-03-26T17:30:48;11.80;;;1.10;;
55210;SDS011;41082;52.822;6.666;2023-03-26T17:36:12;11.90;;;0.82;;
55210;SDS011;41082;52.822;6.666;2023-03-26T17:41:09;9.60;;;0.65;;
55210;SDS011;41082;52.822;6.666;2023-03-26T17:49:19;13.52;;;1.17;;
55210;SDS011;41082;52.822;6.666;2023-03-26T17:54:33;13.65;;;0.93;;
55210;SDS011;41082;52.822;6.666;2023-03-26T17:57:13;10.73;;;1.08;;
55210;SDS011;41082;52.822;6.666;2023-03-26T17:59:43;8.50;;;0.85;;
55210;SDS011;41082;52.822;6.666;2023-03-26T18:02:14;11.48;;;0.98;;
55210;SDS011;41082;52.822;6.666;2023-03-26T18:04:45;11.70;;;1.08;;
55210;SDS011;41082;52.822;6.666;2023-03-26T18:07:26;8.00;;;1.20;;
55210;SDS011;41082;52.822;6.666;2023-03-26T18:13:05;8.30;;;0.45;;
55210;SDS011;41082;52.822;6.666;2023-03-26T18:18:57;7.28;;;0.65;;
55210;SDS011;41082;52.822;6.666;2023-03-26T18:21:27;13.27;;;2.05;;
55210;SDS011;41082;52.822;6.666;2023-03-26T18:23:57;8.52;;;0.60;;
55210;SDS011;41082;52.822;6.666;2023-03-26T18:26:39;11.43;;;0.70;;
55210;SDS011;41082;52.822;6.666;2023-03-26T18:29:15;13.30;;;1.13;;
55210;SDS011;41082;52.822;6.666;2023-03-26T18:31:53;8.57;;;0.60;;
55210;SDS011;41082;52.822;6.666;2023-03-26T18:34:23;9.18;;;0.50;;
55210;SDS011;41082;52.822;6.666;2023-03-26T18:37:35;11.60;;;0.50;;
55210;SDS011;41082;52.822;6.666;2023-03-26T18:39:55;11.27;;;0.65;;
55210;SDS011;41082;52.822;6.666;2023-03-26T18:42:23;11.85;;;0.90;;
55210;SDS011;41082;52.822;6.666;2023-03-26T18:44:49;11.07;;;0.70;;
55210;SDS011;41082;52.822;6.666;2023-03-26T18:47:16;9.07;;;0.70;;
55210;SDS011;41082;52.822;6.666;2023-03-26T18:49:43;13.73;;;1.17;;
55210;SDS011;41082;52.822;6.666;2023-03-26T18:52:14;6.65;;;0.70;;
55210;SDS011;41082;52.822;6.666;2023-03-26T18:54:41;13.48;;;0.50;;
55210;SDS011;41082;52.822;6.666;2023-03-26T18:57:18;11.63;;;0.47;;
55210;SDS011;41082;52.822;6.666;2023-03-26T18:59:47;14.38;;;0.55;;
55210;SDS011;41082;52.822;6.666;2023-03-26T19:02:15;8.43;;;1.30;;
55210;SDS011;41082;52.822;6.666;2023-03-26T19:04:42;12.25;;;1.58;;
55210;SDS011;41082;52.822;6.666;2023-03-26T19:07:11;17.52;;;1.17;;
55210;SDS011;41082;52.822;6.666;2023-03-26T19:09:38;11.02;;;1.30;;
55210;SDS011;41082;52.822;6.666;2023-03-26T19:12:07;7.40;;;0.43;;
55210;SDS011;41082;52.822;6.666;2023-03-26T19:14:49;9.65;;;0.60;;
55210;SDS011;41082;52.822;6.666;2023-03-26T19:17:18;10.43;;;0.80;;
55210;SDS011;41082;52.822;6.666;2023-03-26T19:19:43;12.15;;;0.98;;
55210;SDS011;41082;52.822;6.666;2023-03-26T19:22:09;8.50;;;0.60;;
55210;SDS011;41082;52.822;6.666;2023-03-26T19:24:35;6.18;;;0.80;;
55210;SDS011;41082;52.822;6.666;2023-03-26T19:27:01;9.80;;;0.85;;
55210;SDS011;41082;52.822;6.666;2023-03-26T19:29:29;10.32;;;0.57;;
55210;SDS011;41082;52.822;6.666;2023-03-26T19:32:04;10.32;;;0.52;;
55210;SDS011;41082;52.822;6.666;2023-03-26T19:34:40;14.45;;;0.93;;
55210;SDS011;41082;52.822;6.666;2023-03-26T19:37:24;8.75;;;0.47;;
55210;SDS011;41082;52.822;6.666;2023-03-26T19:39:59;7.97;;;0.75;;
55210;SDS011;41082;52.822;6.666;2023-03-26T19:42:30;11.02;;;1.08;;
55210;SDS011;41082;52.822;6.666;2023-03-26T19:44:57;7.32;;;0.43;;
55210;SDS011;41082;52.822;6.666;2023-03-26T19:47:29;10.35;;;0.60;;
55210;SDS011;41082;52.822;6.666;2023-03-26T19:52:47;8.13;;;0.40;;
55210;SDS011;41082;52.822;6.666;2023-03-26T19:55:27;7.78;;;0.57;;
55210;SDS011;41082;52.822;6.666;2023-03-26T19:57:53;12.55;;;2.25;;
55210;SDS011;41082;52.822;6.666;2023-03-26T20:00:19;9.55;;;0.43;;
55210;SDS011;41082;52.822;6.666;2023-03-26T20:02:46;7.30;;;0.52;;
55210;SDS011;41082;52.822;6.666;2023-03-26T20:05:17;9.18;;;0.70;;
55210;SDS011;41082;52.822;6.666;2023-03-26T20:07:53;6.85;;;0.50;;
55210;SDS011;41082;52.822;6.666;2023-03-26T20:10:21;6.63;;;0.60;;
55210;SDS011;41082;52.822;6.666;2023-03-26T20:12:47;6.00;;;0.40;;
55210;SDS011;41082;52.822;6.666;2023-03-26T20:17:41;7.65;;;0.73;;
55210;SDS011;41082;52.822;6.666;2023-03-26T20:20:07;6.22;;;1.10;;
55210;SDS011;41082;52.822;6.666;2023-03-26T20:22:36;6.25;;;0.60;;
55210;SDS011;41082;52.822;6.666;2023-03-26T20:25:08;7.90;;;0.43;;
55210;SDS011;41082;52.822;6.666;2023-03-26T20:27:43;6.13;;;0.52;;
55210;SDS011;41082;52.822;6.666;2023-03-26T20:30:09;7.38;;;0.32;;
55210;SDS011;41082;52.822;6.666;2023-03-26T20:32:35;5.70;;;0.32;;
55210;SDS011;41082;52.822;6.666;2023-03-26T20:35:08;7.70;;;0.40;;
55210;SDS011;41082;52.822;6.666;2023-03-26T20:37:45;11.57;;;0.65;;
55210;SDS011;41082;52.822;6.666;2023-03-26T20:40:11;6.95;;;0.45;;
55210;SDS011;41082;52.822;6.666;2023-03-26T20:42:38;7.00;;;0.40;;
55210;SDS011;41082;52.822;6.666;2023-03-26T20:47:44;5.45;;;0.60;;
55210;SDS011;41082;52.822;6.666;2023-03-26T20:50:13;10.73;;;1.10;;
55210;SDS011;41082;52.822;6.666;2023-03-26T20:52:39;5.70;;;0.50;;
55210;SDS011;41082;52.822;6.666;2023-03-26T20:55:09;8.50;;;0.70;;
55210;SDS011;41082;52.822;6.666;2023-03-26T20:57:36;7.32;;;0.40;;
55210;SDS011;41082;52.822;6.666;2023-03-26T21:00:02;5.55;;;0.60;;
55210;SDS011;41082;52.822;6.666;2023-03-26T21:02:33;9.13;;;0.30;;
55210;SDS011;41082;52.822;6.666;2023-03-26T21:04:58;8.15;;;0.63;;
55210;SDS011;41082;52.822;6.666;2023-03-26T21:07:24;6.43;;;0.52;;
55210;SDS011;41082;52.822;6.666;2023-03-26T21:09:49;6.07;;;0.60;;
55210;SDS011;41082;52.822;6.666;2023-03-26T21:12:31;4.88;;;0.50;;
55210;SDS011;41082;52.822;6.666;2023-03-26T21:15:02;6.35;;;0.38;;
55210;SDS011;41082;52.822;6.666;2023-03-26T21:17:28;4.65;;;0.60;;
55210;SDS011;41082;52.822;6.666;2023-03-26T21:19:54;7.03;;;0.52;;
55210;SDS011;41082;52.822;6.666;2023-03-26T21:28:15;5.93;;;0.43;;